createdAt,value
2022-10-08T00:00:01.962Z,101016.75
2022-10-08T00:02:39.543Z,101025.53
2022-10-08T00:05:07.867Z,101013.97
2022-10-08T00:07:35.519Z,101025.16
2022-10-08T00:10:06.247Z,101024.09
2022-10-08T00:12:33.929Z,101016.84
2022-10-08T00:15:01.568Z,101014.06
2022-10-08T00:17:29.361Z,101015.66
2022-10-08T00:19:57.462Z,101020.84
2022-10-08T00:22:25.838Z,101021.59
2022-10-08T00:24:54.372Z,101020.50
2022-10-08T00:27:24.273Z,101027.34
2022-10-08T00:29:52.875Z,101024.47
2022-10-08T00:32:20.792Z,101022.44
2022-10-08T00:34:48.508Z,101010.00
2022-10-08T00:37:16.607Z,101008.91
2022-10-08T00:39:45.391Z,101006.97
2022-10-08T00:42:13.826Z,101005.91
2022-10-08T00:44:57.662Z,101001.19
2022-10-08T00:47:42.830Z,101002.75
2022-10-08T00:50:15.524Z,101007.09
2022-10-08T00:52:47.506Z,101001.78
2022-10-08T00:55:19.703Z,101001.66
2022-10-08T00:57:47.223Z,101001.66
2022-10-08T01:00:19.217Z,100997.19
2022-10-08T01:02:46.962Z,100988.28
2022-10-08T01:05:17.756Z,100990.69
2022-10-08T01:07:52.002Z,100987.91
2022-10-08T01:10:28.457Z,100979.72
2022-10-08T01:13:16.968Z,100977.63
2022-10-08T01:15:56.498Z,100987.19
2022-10-08T01:18:33.570Z,100975.44
2022-10-08T01:21:07.021Z,100974.38
2022-10-08T01:24:14.451Z,100980.16
2022-10-08T01:26:53.890Z,100976.28
2022-10-08T01:29:27.868Z,100971.81
2022-10-08T01:32:03.163Z,100970.59
2022-10-08T01:34:37.520Z,100969.50
2022-10-08T01:37:08.855Z,100962.25
2022-10-08T01:39:39.345Z,100963.69
2022-10-08T01:42:10.491Z,100965.88
2022-10-08T01:44:43.825Z,100966.31
2022-10-08T01:47:14.571Z,100960.88
2022-10-08T01:49:48.886Z,100965.94
2022-10-08T01:52:26.926Z,100974.25
2022-10-08T01:55:01.082Z,100971.34
2022-10-08T01:57:31.650Z,100980.03
2022-10-08T02:00:04.662Z,100978.06
2022-10-08T02:02:40.084Z,100978.69
2022-10-08T02:05:08.068Z,100972.38
2022-10-08T02:07:38.640Z,100970.47
2022-10-08T02:10:10.110Z,100969.50
2022-10-08T02:12:39.248Z,100968.38
2022-10-08T02:15:11.252Z,100977.09
2022-10-08T02:17:41.317Z,100975.00
2022-10-08T02:20:19.212Z,100974.88
2022-10-08T02:22:53.924Z,100980.69
2022-10-08T02:25:29.439Z,100981.28
2022-10-08T02:28:06.818Z,100982.72
2022-10-08T02:30:41.862Z,100990.41
2022-10-08T02:33:14.775Z,100987.53
2022-10-08T02:35:48.621Z,100985.56
2022-10-08T02:38:20.625Z,100984.34
2022-10-08T02:40:50.611Z,100989.25
2022-10-08T02:43:22.779Z,100983.94
2022-10-08T02:45:57.781Z,100985.50
2022-10-08T02:48:31.202Z,100988.72
2022-10-08T02:51:03.014Z,100985.81
2022-10-08T02:53:31.203Z,100983.63
2022-10-08T02:56:09.289Z,100978.03
2022-10-08T02:58:37.727Z,100984.06
2022-10-08T03:01:10.914Z,100986.47
2022-10-08T03:03:44.201Z,100976.53
2022-10-08T03:06:13.574Z,100981.44
2022-10-08T03:08:45.582Z,100983.03
2022-10-08T03:11:13.815Z,100983.59
2022-10-08T03:13:44.058Z,100984.31
2022-10-08T03:16:16.925Z,100982.22
2022-10-08T03:18:45.901Z,100975.91
2022-10-08T03:21:15.960Z,100984.63
2022-10-08T03:23:43.664Z,100972.84
2022-10-08T03:26:11.246Z,100974.44
2022-10-08T03:28:38.904Z,100981.28
2022-10-08T03:31:07.497Z,100982.13
2022-10-08T03:33:36.481Z,100978.50
2022-10-08T03:36:04.312Z,100985.38
2022-10-08T03:38:34.760Z,100985.38
2022-10-08T03:41:02.578Z,100988.75
2022-10-08T03:43:32.558Z,100986.94
2022-10-08T03:46:00.490Z,100983.28
2022-10-08T03:48:28.416Z,100984.13
2022-10-08T03:50:58.969Z,100989.34
2022-10-08T03:53:28.441Z,101002.38
2022-10-08T03:55:56.066Z,100998.88
2022-10-08T03:58:23.642Z,101014.69
2022-10-08T04:00:58.433Z,101006.59
2022-10-08T04:03:26.366Z,101009.81
2022-10-08T04:05:54.301Z,101012.47
2022-10-08T04:08:23.471Z,101010.66
2022-10-08T04:10:51.019Z,101013.06
2022-10-08T04:13:19.275Z,101029.88
2022-10-08T04:15:48.336Z,101016.44
2022-10-08T04:18:16.032Z,101017.28
2022-10-08T04:20:44.057Z,101014.34
2022-10-08T04:23:12.341Z,101010.72
2022-10-08T04:25:49.926Z,101014.06
2022-10-08T04:28:17.712Z,101017.47
2022-10-08T04:30:55.626Z,101014.81
2022-10-08T04:33:23.417Z,101004.16
2022-10-08T04:35:51.210Z,101007.50
2022-10-08T04:38:18.820Z,100998.53
2022-10-08T04:40:47.792Z,100998.28
2022-10-08T04:43:15.627Z,101002.63
2022-10-08T04:45:44.754Z,101003.47
2022-10-08T04:48:12.661Z,101008.50
2022-10-08T04:50:40.731Z,101014.72
2022-10-08T04:53:08.330Z,101009.38
2022-10-08T04:55:36.196Z,101017.22
2022-10-08T04:58:05.246Z,101014.28
2022-10-08T05:00:32.861Z,101017.94
2022-10-08T05:03:00.451Z,101020.34
2022-10-08T05:05:28.040Z,101024.81
2022-10-08T05:07:56.731Z,101022.03
2022-10-08T05:10:24.781Z,101023.84
2022-10-08T05:12:52.353Z,101018.38
2022-10-08T05:15:21.240Z,101028.19
2022-10-08T05:17:48.950Z,101025.38
2022-10-08T05:20:16.564Z,101036.03
2022-10-08T05:22:44.343Z,101045.72
2022-10-08T05:25:12.127Z,101054.44
2022-10-08T05:27:39.751Z,101055.28
2022-10-08T05:30:08.988Z,101066.91
2022-10-08T05:32:37.953Z,101056.13
2022-10-08T05:35:06.214Z,101054.28
2022-10-08T05:37:34.174Z,101045.31
2022-10-08T05:40:01.765Z,101056.81
2022-10-08T05:42:29.305Z,101061.16
2022-10-08T05:44:56.872Z,101063.72
2022-10-08T05:47:24.516Z,101076.06
2022-10-08T05:49:53.454Z,101080.41
2022-10-08T05:52:21.063Z,101086.72
2022-10-08T05:54:48.678Z,101087.41
2022-10-08T05:57:16.564Z,101086.44
2022-10-08T05:59:44.166Z,101085.34
2022-10-08T06:02:12.432Z,101087.28
2022-10-08T06:04:40.103Z,101087.00
2022-10-08T06:07:09.052Z,101094.31
2022-10-08T06:09:36.711Z,101103.16
2022-10-08T06:12:04.269Z,101110.16
2022-10-08T06:14:32.073Z,101121.53
2022-10-08T06:16:59.686Z,101124.03
2022-10-08T06:19:27.400Z,101124.91
2022-10-08T06:21:55.020Z,101126.72
2022-10-08T06:24:23.970Z,101133.75
2022-10-08T06:26:51.548Z,101140.47
2022-10-08T06:29:19.689Z,101142.16
2022-10-08T06:31:47.615Z,101146.53
2022-10-08T06:34:16.027Z,101153.44
2022-10-08T06:36:43.625Z,101157.94
2022-10-08T06:39:13.288Z,101156.81
2022-10-08T06:41:42.618Z,101158.53
2022-10-08T06:44:12.577Z,101167.38
2022-10-08T06:46:40.675Z,101164.56
2022-10-08T06:49:08.503Z,101157.41
2022-10-08T06:51:36.104Z,101174.94
2022-10-08T06:54:07.785Z,101168.66
2022-10-08T06:56:37.152Z,101182.53
2022-10-08T06:59:07.436Z,101185.94
2022-10-08T07:01:36.060Z,101183.13
2022-10-08T07:04:06.663Z,101179.34
2022-10-08T07:06:34.361Z,101183.56
2022-10-08T07:09:02.750Z,101188.63
2022-10-08T07:11:32.266Z,101187.63
2022-10-08T07:14:00.494Z,101192.84
2022-10-08T07:16:29.684Z,101201.56
2022-10-08T07:18:59.267Z,101199.59
2022-10-08T07:21:27.903Z,101202.00
2022-10-08T07:23:55.685Z,101214.06
2022-10-08T07:26:25.290Z,101216.47
2022-10-08T07:28:55.036Z,101223.25
2022-10-08T07:31:24.737Z,101230.81
2022-10-08T07:33:53.703Z,101234.22
2022-10-08T07:36:23.168Z,101234.91
2022-10-08T07:38:54.790Z,101241.09
2022-10-08T07:41:22.651Z,101248.00
2022-10-08T07:43:51.959Z,101251.38
2022-10-08T07:46:19.578Z,101252.22
2022-10-08T07:48:47.878Z,101263.56
2022-10-08T07:51:18.676Z,101261.63
2022-10-08T07:53:46.788Z,101261.50
2022-10-08T07:56:16.320Z,101265.16
2022-10-08T07:58:45.207Z,101258.81
2022-10-08T08:01:15.927Z,101263.47
2022-10-08T08:03:44.127Z,101259.53
2022-10-08T08:06:13.402Z,101263.63
2022-10-08T08:08:44.189Z,101248.63
2022-10-08T08:11:14.509Z,101258.06
2022-10-08T08:13:43.108Z,101262.16
2022-10-08T08:16:13.065Z,101261.03
2022-10-08T08:18:42.780Z,101259.50
2022-10-08T08:21:12.880Z,101267.25
2022-10-08T08:23:43.816Z,101285.00
2022-10-08T08:26:12.807Z,101281.91
2022-10-08T08:28:41.342Z,101289.91
2022-10-08T08:31:11.256Z,101292.19
2022-10-08T08:33:39.279Z,101291.88
2022-10-08T08:36:07.836Z,101292.28
2022-10-08T08:38:35.678Z,101305.25
2022-10-08T08:41:20.778Z,101303.38
2022-10-08T08:43:48.927Z,101314.22
2022-10-08T08:46:21.903Z,101316.91
2022-10-08T08:48:54.243Z,101322.97
2022-10-08T08:51:21.854Z,101327.03
2022-10-08T08:53:49.573Z,101318.31
2022-10-08T08:56:23.484Z,101324.78
2022-10-08T08:58:58.656Z,101326.50
2022-10-08T09:01:32.916Z,101328.59
2022-10-08T09:04:07.201Z,101332.09
2022-10-08T09:06:35.720Z,101334.06
2022-10-08T09:09:11.192Z,101335.63
2022-10-08T09:11:40.394Z,101332.22
2022-10-08T09:14:25.248Z,101331.38
2022-10-08T09:16:53.752Z,101338.94
2022-10-08T09:19:22.402Z,101339.25
2022-10-08T09:21:50.052Z,101333.31
2022-10-08T09:24:18.838Z,101340.63
2022-10-08T09:26:47.778Z,101346.53
2022-10-08T09:29:33.666Z,101353.16
2022-10-08T09:32:01.507Z,101353.81
2022-10-08T09:34:29.109Z,101352.56
2022-10-08T09:37:06.171Z,101367.63
2022-10-08T09:39:35.721Z,101365.22
2022-10-08T09:42:17.198Z,101363.09
2022-10-08T09:44:46.426Z,101372.66
2022-10-08T09:47:16.212Z,101377.84
2022-10-08T09:49:44.857Z,101380.13
2022-10-08T09:52:17.305Z,101376.34
2022-10-08T09:54:49.453Z,101376.03
2022-10-08T09:57:19.876Z,101381.38
2022-10-08T09:59:53.741Z,101378.19
2022-10-08T10:02:34.009Z,101383.38
2022-10-08T10:05:03.749Z,101393.78
2022-10-08T10:07:40.534Z,101394.34
2022-10-08T10:10:17.204Z,101390.25
2022-10-08T10:12:50.038Z,101393.38
2022-10-08T10:15:21.913Z,101395.66
2022-10-08T10:17:54.900Z,101392.13
2022-10-08T10:20:28.325Z,101391.88
2022-10-08T10:23:00.380Z,101398.75
2022-10-08T10:25:36.592Z,101396.50
2022-10-08T10:28:13.052Z,101394.97
2022-10-08T10:30:52.196Z,101399.63
2022-10-08T10:33:23.559Z,101390.47
2022-10-08T10:35:55.255Z,101399.06
2022-10-08T10:38:27.611Z,101397.22
2022-10-08T10:41:07.194Z,101395.22
2022-10-08T10:43:43.547Z,101397.06
2022-10-08T10:46:23.063Z,101397.63
2022-10-08T10:48:51.390Z,101397.50
2022-10-08T10:51:43.225Z,101394.13
2022-10-08T10:54:25.865Z,101400.75
2022-10-08T10:57:00.159Z,101400.47
2022-10-08T10:59:44.840Z,101403.47
2022-10-08T11:02:24.001Z,101401.34
2022-10-08T11:05:01.861Z,101406.25
2022-10-08T11:07:51.508Z,101404.41
2022-10-08T11:10:34.763Z,101408.34
2022-10-08T11:13:17.830Z,101400.44
2022-10-08T11:15:56.906Z,101409.06
2022-10-08T11:18:33.225Z,101424.78
2022-10-08T11:21:12.090Z,101434.88
2022-10-08T11:23:52.681Z,101441.97
2022-10-08T11:26:28.788Z,101437.91
2022-10-08T11:29:07.129Z,101449.50
2022-10-08T11:31:41.954Z,101450.47
2022-10-08T11:34:20.781Z,101453.44
2022-10-08T11:36:55.886Z,101442.44
2022-10-08T11:39:31.546Z,101445.09
2022-10-08T11:42:10.197Z,101440.41
2022-10-08T11:44:38.164Z,101439.03
2022-10-08T11:47:47.799Z,101430.69
2022-10-08T11:50:24.634Z,101436.56
2022-10-08T11:52:54.399Z,101431.63
2022-10-08T11:55:27.015Z,101441.72
2022-10-08T11:58:07.714Z,101428.06
2022-10-08T12:00:40.741Z,101429.91
2022-10-08T12:03:22.953Z,101441.44
2022-10-08T12:05:53.446Z,101426.25
2022-10-08T12:08:50.670Z,101426.00
2022-10-08T12:11:50.038Z,101424.00
2022-10-08T12:14:44.439Z,101424.72
2022-10-08T12:17:13.118Z,101420.66
2022-10-08T12:20:04.207Z,101423.94
2022-10-08T12:23:02.625Z,101424.78
2022-10-08T12:25:44.184Z,101427.91
2022-10-08T12:28:48.038Z,101427.59
2022-10-08T12:31:39.386Z,101435.06
2022-10-08T12:34:17.803Z,101434.41
2022-10-08T12:36:57.827Z,101435.09
2022-10-08T12:39:36.184Z,101438.47
2022-10-08T12:42:15.880Z,101438.06
2022-10-08T12:45:00.818Z,101442.00
2022-10-08T12:47:42.768Z,101444.69
2022-10-08T12:50:30.976Z,101446.38
2022-10-08T12:53:02.449Z,101446.22
2022-10-08T12:55:34.406Z,101452.00
2022-10-08T12:58:05.498Z,101451.31
2022-10-08T13:00:35.705Z,101447.50
2022-10-08T13:03:05.708Z,101449.91
2022-10-08T13:05:36.192Z,101446.00
2022-10-08T13:10:58.482Z,101433.19
2022-10-08T13:13:44.803Z,101441.34
2022-10-08T13:16:14.787Z,101442.19
2022-10-08T13:18:44.747Z,101455.41
2022-10-08T13:21:28.533Z,101454.28
2022-10-08T13:23:56.097Z,101469.34
2022-10-08T13:26:42.935Z,101463.44
2022-10-08T13:29:29.361Z,101460.75
2022-10-08T13:31:59.072Z,101468.66
2022-10-08T13:34:30.812Z,101472.00
2022-10-08T13:37:00.859Z,101474.97
2022-10-08T13:39:31.196Z,101476.91
2022-10-08T13:42:02.371Z,101476.66
2022-10-08T13:44:30.472Z,101480.31
2022-10-08T13:47:03.323Z,101482.81
2022-10-08T13:49:34.105Z,101483.47
2022-10-08T13:52:02.201Z,101487.41
2022-10-08T13:54:32.600Z,101495.13
2022-10-08T13:57:01.545Z,101493.63
2022-10-08T13:59:30.912Z,101491.38
2022-10-08T14:01:58.751Z,101487.56
2022-10-08T14:04:26.976Z,101489.09
2022-10-08T14:06:57.260Z,101493.75
2022-10-08T14:09:27.524Z,101489.53
2022-10-08T14:11:59.152Z,101495.03
2022-10-08T14:14:28.988Z,101497.28
2022-10-08T14:16:56.574Z,101503.66
2022-10-08T14:19:24.162Z,101513.09
2022-10-08T14:21:55.784Z,101508.44
2022-10-08T14:24:23.458Z,101519.56
2022-10-08T14:26:50.980Z,101515.66
2022-10-08T14:29:18.820Z,101531.56
2022-10-08T14:31:47.779Z,101530.34
2022-10-08T14:34:15.388Z,101532.28
2022-10-08T14:36:43.332Z,101530.91
2022-10-08T14:39:11.104Z,101536.69
2022-10-08T14:41:40.663Z,101536.69
2022-10-08T14:44:08.224Z,101533.03
2022-10-08T14:46:35.864Z,101531.91
2022-10-08T14:49:05.245Z,101541.31
2022-10-08T14:51:38.428Z,101530.91
2022-10-08T14:54:07.021Z,101533.00
2022-10-08T14:56:42.776Z,101543.28
2022-10-08T14:59:10.483Z,101545.69
2022-10-08T15:01:38.425Z,101546.09
2022-10-08T15:04:08.067Z,101540.47
2022-10-08T15:06:35.737Z,101536.53
2022-10-08T15:09:03.319Z,101544.25
2022-10-08T15:11:31.133Z,101540.31
2022-10-08T15:13:59.388Z,101538.03
2022-10-08T15:16:27.120Z,101548.19
2022-10-08T15:18:54.760Z,101545.09
2022-10-08T15:21:23.780Z,101544.78
2022-10-08T15:23:51.359Z,101548.00
2022-10-08T15:26:19.504Z,101550.09
2022-10-08T15:28:47.305Z,101555.00
2022-10-08T15:31:16.911Z,101554.47
2022-10-08T15:33:46.436Z,101560.19
2022-10-08T15:36:18.717Z,101557.94
2022-10-08T15:38:48.588Z,101557.47
2022-10-08T15:41:17.417Z,101567.63
2022-10-08T15:43:45.442Z,101572.38
2022-10-08T15:46:16.777Z,101578.09
2022-10-08T15:48:51.928Z,101582.75
2022-10-08T15:51:19.547Z,101577.94
2022-10-08T15:53:48.863Z,101579.06
2022-10-08T15:56:17.153Z,101582.94
2022-10-08T15:58:52.157Z,101581.50
2022-10-08T16:01:21.983Z,101582.72
2022-10-08T16:03:52.024Z,101587.38
2022-10-08T16:06:21.758Z,101590.44
2022-10-08T16:08:50.778Z,101591.69
2022-10-08T16:11:21.339Z,101599.09
2022-10-08T16:13:51.306Z,101606.66
2022-10-08T16:16:19.531Z,101606.94
2022-10-08T16:18:50.939Z,101615.34
2022-10-08T16:21:18.773Z,101611.22
2022-10-08T16:23:46.581Z,101609.91
2022-10-08T16:26:20.372Z,101610.28
2022-10-08T16:28:49.899Z,101616.03
2022-10-08T16:31:18.048Z,101619.06
2022-10-08T16:33:46.456Z,101632.66
2022-10-08T16:36:14.624Z,101627.84
2022-10-08T16:38:42.353Z,101625.56
2022-10-08T16:41:12.328Z,101626.91
2022-10-08T16:43:41.429Z,101643.16
2022-10-08T16:46:17.483Z,101636.38
2022-10-08T16:48:50.873Z,101638.59
2022-10-08T16:51:18.890Z,101645.16
2022-10-08T16:53:48.779Z,101654.38
2022-10-08T16:56:16.511Z,101658.28
2022-10-08T16:58:45.737Z,101654.28
2022-10-08T17:01:13.387Z,101665.31
2022-10-08T17:03:41.032Z,101669.31
2022-10-08T17:06:10.836Z,101664.47
2022-10-08T17:08:38.640Z,101660.59
2022-10-08T17:11:07.789Z,101675.28
2022-10-08T17:13:35.639Z,101677.53
2022-10-08T17:16:07.303Z,101682.47
2022-10-08T17:18:35.853Z,101678.59
2022-10-08T17:21:04.760Z,101680.91
2022-10-08T17:23:37.933Z,101680.53
2022-10-08T17:26:08.212Z,101688.16
2022-10-08T17:28:39.021Z,101688.63
2022-10-08T17:31:10.283Z,101694.56
2022-10-08T17:33:38.013Z,101701.19
2022-10-08T17:36:08.475Z,101704.53
2022-10-08T17:38:37.302Z,101720.88
2022-10-08T17:41:11.648Z,101716.97
2022-10-08T17:43:39.508Z,101720.94
2022-10-08T17:46:10.296Z,101725.88
2022-10-08T17:48:38.245Z,101724.50
2022-10-08T17:51:07.142Z,101732.00
2022-10-08T17:53:34.735Z,101745.75
2022-10-08T17:56:03.908Z,101743.41
2022-10-08T17:58:31.815Z,101749.19
2022-10-08T18:01:09.773Z,101755.81
2022-10-08T18:03:38.799Z,101758.06
2022-10-08T18:06:07.623Z,101757.66
2022-10-08T18:08:35.373Z,101763.31
2022-10-08T18:11:04.277Z,101762.81
2022-10-08T18:13:32.306Z,101764.94
2022-10-08T18:16:03.767Z,101760.78
2022-10-08T18:18:33.957Z,101764.56
2022-10-08T18:21:02.577Z,101769.41
2022-10-08T18:23:31.548Z,101780.44
2022-10-08T18:26:08.577Z,101780.78
2022-10-08T18:28:37.008Z,101781.09
2022-10-08T18:31:05.828Z,101779.59
2022-10-08T18:33:35.831Z,101793.19
2022-10-08T18:36:13.013Z,101791.63
2022-10-08T18:38:41.616Z,101804.25
2022-10-08T18:41:16.987Z,101801.81
2022-10-08T18:43:45.783Z,101808.41
2022-10-08T18:46:14.005Z,101798.09
2022-10-08T18:48:43.597Z,101803.63
2022-10-08T18:51:13.386Z,101815.41
2022-10-08T18:53:42.984Z,101815.72
2022-10-08T18:56:14.276Z,101823.13
2022-10-08T18:58:42.435Z,101820.81
2022-10-08T19:01:18.370Z,101824.72
2022-10-08T19:03:48.930Z,101825.88
2022-10-08T19:06:16.917Z,101824.38
2022-10-08T19:08:44.773Z,101824.69
2022-10-08T19:11:14.402Z,101833.69
2022-10-08T19:13:42.232Z,101830.47
2022-10-08T19:16:13.461Z,101832.59
2022-10-08T19:18:42.865Z,101841.81
2022-10-08T19:21:14.144Z,101837.66
2022-10-08T19:23:41.969Z,101838.81
2022-10-08T19:26:10.439Z,101842.59
2022-10-08T19:28:39.273Z,101845.56
2022-10-08T19:31:14.004Z,101852.88
2022-10-08T19:33:41.777Z,101856.66
2022-10-08T19:36:09.987Z,101856.09
2022-10-08T19:38:38.933Z,101856.41
2022-10-08T19:41:11.028Z,101858.28
2022-10-08T19:43:38.950Z,101862.09
2022-10-08T19:46:07.150Z,101861.44
2022-10-08T19:48:34.787Z,101860.75
2022-10-08T19:51:05.146Z,101860.22
2022-10-08T19:53:32.882Z,101862.09
2022-10-08T19:56:04.168Z,101864.00
2022-10-08T19:58:31.940Z,101872.13
2022-10-08T20:01:00.758Z,101876.78
2022-10-08T20:03:28.536Z,101883.22
2022-10-08T20:05:56.351Z,101877.25
2022-10-08T20:08:24.048Z,101881.91
2022-10-08T20:10:51.622Z,101885.56
2022-10-08T20:13:20.831Z,101880.44
2022-10-08T20:15:51.358Z,101881.47
2022-10-08T20:18:19.376Z,101881.47
2022-10-08T20:20:47.333Z,101886.88
2022-10-08T20:23:15.075Z,101886.13
2022-10-08T20:25:42.763Z,101898.63
2022-10-08T20:28:10.571Z,101901.44
2022-10-08T20:30:39.535Z,101903.41
2022-10-08T20:33:07.246Z,101904.56
2022-10-08T20:35:36.898Z,101908.25
2022-10-08T20:38:04.519Z,101904.94
2022-10-08T20:40:32.147Z,101904.16
2022-10-08T20:42:59.719Z,101904.34
2022-10-08T20:45:27.356Z,101902.72
2022-10-08T20:47:56.272Z,101908.22
2022-10-08T20:50:23.878Z,101911.88
2022-10-08T20:52:51.447Z,101906.88
2022-10-08T20:55:19.611Z,101915.84
2022-10-08T20:57:47.160Z,101909.09
2022-10-08T21:00:15.512Z,101906.66
2022-10-08T21:02:43.170Z,101910.41
2022-10-08T21:05:12.107Z,101914.19
2022-10-08T21:07:39.670Z,101912.66
2022-10-08T21:10:08.906Z,101916.31
2022-10-08T21:12:36.509Z,101920.88
2022-10-08T21:15:04.302Z,101925.41
2022-10-08T21:17:31.988Z,101922.94
2022-10-08T21:19:59.621Z,101923.13
2022-10-08T21:22:28.629Z,101928.56
2022-10-08T21:24:56.325Z,101935.81
2022-10-08T21:27:23.947Z,101936.00
2022-10-08T21:29:51.893Z,101932.66
2022-10-08T21:32:19.720Z,101937.22
2022-10-08T21:34:47.311Z,101935.66
2022-10-08T21:37:14.936Z,101936.69
2022-10-08T21:39:43.986Z,101941.25
2022-10-08T21:42:12.169Z,101938.75
2022-10-08T21:44:39.948Z,101937.13
2022-10-08T21:47:07.514Z,101936.44
2022-10-08T21:49:35.369Z,101939.28
2022-10-08T21:52:03.638Z,101939.44
2022-10-08T21:54:31.224Z,101943.13
2022-10-08T21:57:00.223Z,101949.50
2022-10-08T21:59:27.911Z,101952.25
2022-10-08T22:01:57.459Z,101950.59
2022-10-08T22:04:26.582Z,101941.91
2022-10-08T22:06:57.653Z,101949.03
2022-10-08T22:09:27.451Z,101942.16
2022-10-08T22:11:56.130Z,101946.69
2022-10-08T22:14:25.746Z,101945.03
2022-10-08T22:16:53.854Z,101947.88
2022-10-08T22:19:21.657Z,101941.78
2022-10-08T22:21:49.560Z,101941.09
2022-10-08T22:24:17.500Z,101944.00
2022-10-08T22:26:47.644Z,101943.13
2022-10-08T22:29:16.008Z,101942.38
2022-10-08T22:31:45.324Z,101937.16
2022-10-08T22:34:13.134Z,101934.69
2022-10-08T22:36:42.383Z,101939.28
2022-10-08T22:39:10.669Z,101940.31
2022-10-08T22:41:38.540Z,101936.09
2022-10-08T22:44:06.127Z,101938.06
2022-10-08T22:46:37.315Z,101942.56
2022-10-08T22:49:08.977Z,101939.16
2022-10-08T22:51:37.048Z,101946.31
2022-10-08T22:54:05.018Z,101949.88
2022-10-08T22:56:33.193Z,101942.88
2022-10-08T22:59:02.297Z,101946.47
2022-10-08T23:01:31.248Z,101946.63
2022-10-08T23:03:59.418Z,101951.16
2022-10-08T23:06:29.996Z,101948.72
2022-10-08T23:08:59.813Z,101955.03
2022-10-08T23:11:28.797Z,101953.41
2022-10-08T23:13:58.389Z,101948.28
2022-10-08T23:16:28.063Z,101951.00
2022-10-08T23:18:57.503Z,101952.84
2022-10-08T23:21:25.652Z,101950.41
2022-10-08T23:23:55.427Z,101954.03
2022-10-08T23:26:24.121Z,101951.47
2022-10-08T23:28:53.761Z,101955.91
2022-10-08T23:31:23.865Z,101949.84
2022-10-08T23:33:52.982Z,101956.06
2022-10-08T23:36:22.338Z,101952.72
2022-10-08T23:38:50.686Z,101959.09
2022-10-08T23:41:20.172Z,101960.09
2022-10-08T23:43:49.227Z,101959.34
2022-10-08T23:46:19.311Z,101955.91
2022-10-08T23:48:47.247Z,101960.41
2022-10-08T23:51:16.350Z,101962.25
2022-10-08T23:53:44.524Z,101959.69
2022-10-08T23:56:13.230Z,101958.09
2022-10-08T23:58:42.590Z,101952.94
